Time;durP1;ratioP1;P1;durP2;ratioP2;P2;SDS_P1;SDS_P2;PMS_P1;PMS_P2;Temp;Humidity;BMP_temperature;BMP_pressure;BME280_temperature;BME280_humidity;BME280_pressure;Samples;Min_cycle;Max_cycle;Signal;HPM_P1;HPM_P2
2021/10/30 00:02:18;;;;;;;25.45;17.17;;;;;;;8.37;75.35;101095.94;5088408;28;20068;-20
2021/10/30 00:04:43;;;;;;;25.35;16.08;;;;;;;8.14;75.74;101084.50;5088526;28;20032;-20
2021/10/30 00:07:09;;;;;;;30.35;17.08;;;;;;;8.27;75.47;101092.69;5088355;28;20032;-20
2021/10/30 00:09:35;;;;;;;26.98;15.95;;;;;;;8.40;74.74;101092.94;5088474;28;20492;-20
2021/10/30 00:12:01;;;;;;;25.75;16.02;;;;;;;8.77;74.17;101093.94;5088150;28;20040;-21
2021/10/30 00:14:27;;;;;;;26.15;15.68;;;;;;;8.63;74.35;101097.41;5088254;28;20067;-19
2021/10/30 00:16:52;;;;;;;24.08;16.60;;;;;;;8.25;75.87;101092.03;5088287;28;20040;-21
2021/10/30 00:19:18;;;;;;;25.27;14.93;;;;;;;8.77;73.77;101096.59;5088737;28;20025;-20
2021/10/30 00:21:43;;;;;;;22.88;14.48;;;;;;;8.83;74.10;101101.19;5087433;28;20063;-19
2021/10/30 00:24:09;;;;;;;25.13;14.88;;;;;;;8.73;73.84;101071.38;5088082;28;20067;-20
2021/10/30 00:26:34;;;;;;;27.60;15.82;;;;;;;8.84;74.02;101083.41;5088313;28;20566;-20
2021/10/30 00:28:59;;;;;;;22.73;13.88;;;;;;;8.61;74.34;101089.59;5069832;28;20032;-20
2021/10/30 00:31:25;;;;;;;26.70;15.63;;;;;;;8.44;74.94;101067.66;5087999;28;20488;-19
2021/10/30 00:33:50;;;;;;;25.08;16.33;;;;;;;8.45;75.19;101077.28;5069819;28;20028;-20
2021/10/30 00:36:16;;;;;;;24.80;14.73;;;;;;;8.21;76.73;101077.47;5087976;28;20488;-21
2021/10/30 00:38:43;;;;;;;24.52;14.60;;;;;;;8.24;76.46;101062.00;5088163;28;20056;-20
2021/10/30 00:41:09;;;;;;;26.65;15.52;;;;;;;8.41;76.58;101072.50;5088212;28;20036;-20
2021/10/30 00:43:36;;;;;;;25.90;14.43;;;;;;;8.24;76.86;101051.38;5088046;28;20079;-20
2021/10/30 00:46:01;;;;;;;24.50;16.42;;;;;;;8.29;77.07;101053.47;5087608;28;20143;-20
2021/10/30 00:48:26;;;;;;;27.05;15.70;;;;;;;8.32;77.54;101068.25;5070190;28;20028;-21
2021/10/30 00:50:56;;;;;;;26.05;15.25;;;;;;;8.36;77.56;101059.75;5088026;28;20036;-21
2021/10/30 00:53:22;;;;;;;23.88;14.85;;;;;;;8.55;77.24;101070.91;5088232;28;20031;-20
2021/10/30 00:55:48;;;;;;;25.52;15.18;;;;;;;8.42;77.32;101060.91;5053521;28;20074;-20
2021/10/30 00:58:14;;;;;;;32.90;16.10;;;;;;;8.52;77.04;101055.28;5070312;28;20027;-20
2021/10/30 01:00:39;;;;;;;23.70;14.95;;;;;;;8.68;76.29;101041.84;5069576;28;20021;-21
2021/10/30 01:03:06;;;;;;;24.25;15.68;;;;;;;8.92;75.69;101063.88;5088006;28;20031;-20
2021/10/30 01:05:32;;;;;;;27.33;15.18;;;;;;;8.84;75.59;101062.13;5087626;28;20042;-20
2021/10/30 01:07:57;;;;;;;25.88;16.70;;;;;;;8.89;75.52;101048.25;5087787;28;20028;-21
2021/10/30 01:10:23;;;;;;;30.70;16.17;;;;;;;8.75;76.08;101058.72;5069707;28;20027;-20
2021/10/30 01:12:48;;;;;;;25.77;16.10;;;;;;;8.64;76.70;101062.66;5087912;28;20036;-20
2021/10/30 01:15:14;;;;;;;28.15;16.92;;;;;;;8.38;77.51;101047.09;5069546;28;20028;-20
2021/10/30 01:17:39;;;;;;;26.08;16.08;;;;;;;8.50;77.69;101055.50;5088074;28;20404;-20
2021/10/30 01:20:05;;;;;;;28.08;16.38;;;;;;;8.33;78.40;101062.75;5087346;28;20021;-20
2021/10/30 01:22:35;;;;;;;28.13;16.13;;;;;;;8.40;78.04;101049.59;5088177;28;20032;-20
2021/10/30 01:25:01;;;;;;;24.45;15.70;;;;;;;8.29;78.82;101060.63;5087645;28;20040;-20
2021/10/30 01:27:26;;;;;;;26.10;16.40;;;;;;;8.36;78.57;101054.44;5087989;28;20040;-19
2021/10/30 01:29:52;;;;;;;28.67;15.70;;;;;;;8.38;78.73;101052.41;5087116;28;20132;-20
2021/10/30 01:32:18;;;;;;;26.13;16.85;;;;;;;8.65;77.60;101047.53;5087943;28;20031;-20
2021/10/30 01:34:44;;;;;;;25.45;15.95;;;;;;;9.03;76.09;101050.09;5091180;28;20024;-20
2021/10/30 01:37:09;;;;;;;23.95;16.20;;;;;;;9.24;75.08;101039.53;5091149;28;20031;-20
2021/10/30 01:39:35;;;;;;;24.30;15.38;;;;;;;9.16;75.25;101055.59;5072907;28;20496;-20
2021/10/30 01:42:00;;;;;;;25.35;16.25;;;;;;;9.10;75.53;101048.34;5091440;28;20059;-21
2021/10/30 01:44:26;;;;;;;25.58;16.45;;;;;;;8.94;76.32;101051.22;5091322;28;20085;-20
2021/10/30 01:46:57;;;;;;;25.00;16.08;;;;;;;9.25;75.53;101054.50;5091128;28;20060;-20
2021/10/30 01:49:22;;;;;;;25.42;15.93;;;;;;;9.12;75.68;101048.19;5090739;28;20024;-20
2021/10/30 01:51:48;;;;;;;25.00;15.85;;;;;;;9.16;75.79;101060.94;5090998;28;20039;-20
2021/10/30 01:54:13;;;;;;;26.23;15.75;;;;;;;8.93;76.87;101070.81;5090774;28;20132;-20
2021/10/30 01:56:39;;;;;;;27.42;17.48;;;;;;;8.49;77.78;101050.34;5090680;28;20055;-20
2021/10/30 01:59:05;;;;;;;26.67;15.52;;;;;;;8.29;79.30;101061.44;5090521;28;20097;-20
2021/10/30 02:01:30;;;;;;;30.40;17.50;;;;;;;8.47;79.29;101061.16;5090920;28;20043;-20
2021/10/30 02:03:56;;;;;;;26.45;17.27;;;;;;;8.27;79.42;101050.19;5091046;28;20031;-20
2021/10/30 02:06:21;;;;;;;26.52;17.23;;;;;;;8.07;79.93;101046.34;5090822;28;20554;-20
2021/10/30 02:08:47;;;;;;;28.58;17.38;;;;;;;7.99;80.67;101064.03;5090618;28;20028;-20
2021/10/30 02:11:12;;;;;;;30.98;17.83;;;;;;;8.10;79.87;101051.34;5090525;28;20058;-20
2021/10/30 02:13:38;;;;;;;24.35;16.02;;;;;;;8.14;78.59;101039.34;5072270;28;20040;-20
2021/10/30 02:16:04;;;;;;;26.35;15.15;;;;;;;7.96;78.59;101052.91;5090739;28;20040;-19
2021/10/30 02:18:29;;;;;;;23.40;15.48;;;;;;;7.90;78.72;101049.13;5072294;28;20024;-20
2021/10/30 02:20:55;;;;;;;25.45;15.60;;;;;;;7.60;78.11;101054.31;5072388;28;20028;-20
2021/10/30 02:23:20;;;;;;;27.08;16.65;;;;;;;7.47;77.62;101059.38;5090143;28;20132;-20
2021/10/30 02:25:46;;;;;;;25.92;15.95;;;;;;;7.48;77.95;101037.16;5089877;28;20024;-20
2021/10/30 02:28:11;;;;;;;26.48;16.38;;;;;;;7.54;77.25;101055.03;5090085;28;20416;-20
2021/10/30 02:30:37;;;;;;;27.52;16.15;;;;;;;7.68;78.22;101064.03;5090000;28;20035;-20
2021/10/30 02:33:03;;;;;;;27.88;17.23;;;;;;;7.82;77.39;101057.16;5089934;28;20114;-20
2021/10/30 02:35:29;;;;;;;31.15;18.73;;;;;;;7.73;78.16;101039.66;5089949;28;20035;-20
2021/10/30 02:37:54;;;;;;;29.35;18.67;;;;;;;7.99;78.47;101063.22;5090105;28;20047;-22
2021/10/30 02:40:20;;;;;;;29.23;18.40;;;;;;;8.15;78.13;101062.22;5090103;28;20040;-20
2021/10/30 02:42:45;;;;;;;27.33;17.55;;;;;;;8.13;78.47;101061.59;5089521;28;20066;-20
2021/10/30 02:45:11;;;;;;;29.17;18.40;;;;;;;8.31;77.38;101072.72;5089283;28;20024;-20
2021/10/30 02:47:36;;;;;;;32.25;19.05;;;;;;;8.33;76.73;101070.72;5089887;28;20032;-20
2021/10/30 02:50:02;;;;;;;26.98;18.30;;;;;;;8.33;76.27;101057.44;5071433;28;20408;-19
2021/10/30 02:52:27;;;;;;;30.30;18.65;;;;;;;8.45;76.21;101071.16;5089930;28;20119;-20
2021/10/30 02:54:53;;;;;;;30.00;19.02;;;;;;;8.65;75.70;101063.50;5089864;28;20028;-20
2021/10/30 02:57:19;;;;;;;33.42;22.02;;;;;;;8.54;75.87;101053.28;5089396;28;20039;-20
2021/10/30 02:59:44;;;;;;;31.60;19.65;;;;;;;8.69;75.78;101059.47;5089284;28;20074;-20
2021/10/30 03:02:10;;;;;;;28.08;19.75;;;;;;;8.65;75.41;101039.56;5089278;28;20043;-21
2021/10/30 03:04:35;;;;;;;32.58;21.83;;;;;;;8.56;75.56;101048.59;5089519;28;20504;-20
2021/10/30 03:07:01;;;;;;;39.55;23.83;;;;;;;8.74;75.10;101067.69;5089352;28;20548;-21
2021/10/30 03:09:26;;;;;;;40.78;24.13;;;;;;;8.69;75.20;101055.97;5089436;28;20028;-20
2021/10/30 03:11:52;;;;;;;37.05;23.40;;;;;;;8.93;74.95;101070.81;5089010;28;20032;-22
2021/10/30 03:14:17;;;;;;;36.35;22.80;;;;;;;8.41;75.77;101057.38;5089751;28;20032;-20
2021/10/30 03:16:43;;;;;;;44.15;27.45;;;;;;;8.43;76.46;101073.97;5089325;28;20065;-20
2021/10/30 03:19:08;;;;;;;41.20;25.63;;;;;;;8.15;76.54;101057.78;5088956;28;20031;-20
2021/10/30 03:21:34;;;;;;;41.70;25.42;;;;;;;8.27;76.12;101068.78;5089327;28;20036;-20
2021/10/30 03:23:59;;;;;;;41.83;27.10;;;;;;;8.13;76.11;101058.94;5088787;28;20020;-20
2021/10/30 03:26:25;;;;;;;39.58;25.92;;;;;;;8.05;76.66;101079.25;5070889;28;20040;-21
2021/10/30 03:28:51;;;;;;;40.00;25.33;;;;;;;8.05;76.51;101058.00;5089176;28;20055;-20
2021/10/30 03:31:16;;;;;;;40.20;27.10;;;;;;;8.09;76.68;101071.75;5054432;28;20032;-20
2021/10/30 03:33:42;;;;;;;42.00;26.90;;;;;;;8.16;76.09;101074.53;5088617;28;20105;-21
2021/10/30 03:36:07;;;;;;;38.58;25.95;;;;;;;8.18;76.05;101076.00;5088970;28;20042;-20
2021/10/30 03:38:33;;;;;;;44.10;26.52;;;;;;;8.30;74.75;101075.59;5088730;28;20051;-20
2021/10/30 03:40:58;;;;;;;40.70;26.17;;;;;;;7.90;76.06;101067.72;5087237;28;20043;-20
2021/10/30 03:43:24;;;;;;;38.85;25.48;;;;;;;7.68;77.46;101087.13;5088828;28;20054;-20
2021/10/30 03:45:49;;;;;;;42.67;27.02;;;;;;;7.58;77.59;101082.03;5088830;28;20031;-20
2021/10/30 03:48:19;;;;;;;42.00;26.63;;;;;;;7.50;78.15;101074.94;5070459;28;20047;-20
2021/10/30 03:50:45;;;;;;;42.92;26.95;;;;;;;7.53;78.51;101073.78;5088750;28;20036;-20
2021/10/30 03:53:10;;;;;;;43.28;27.00;;;;;;;7.60;78.07;101075.56;5088513;28;20518;-20
2021/10/30 03:55:36;;;;;;;42.53;28.25;;;;;;;7.69;77.89;101083.47;5069965;28;20035;-21
2021/10/30 03:58:01;;;;;;;41.78;28.17;;;;;;;8.14;76.86;101061.41;5088416;28;20028;-21
2021/10/30 04:00:27;;;;;;;42.45;26.20;;;;;;;7.86;76.18;101047.84;5088684;28;20028;-20
2021/10/30 04:02:52;;;;;;;44.40;28.05;;;;;;;7.95;76.33;101057.41;5088469;28;20031;-20
2021/10/30 04:05:18;;;;;;;43.63;26.48;;;;;;;7.86;76.23;101069.09;5088538;28;20081;-20
2021/10/30 04:07:43;;;;;;;48.08;28.40;;;;;;;7.75;76.58;101072.16;5088258;28;20047;-20
2021/10/30 04:10:09;;;;;;;41.63;27.23;;;;;;;7.73;76.59;101074.97;5088224;28;20032;-20
2021/10/30 04:12:35;;;;;;;44.83;27.45;;;;;;;7.89;76.36;101084.69;5070248;28;20040;-20
2021/10/30 04:15:00;;;;;;;46.20;28.73;;;;;;;7.93;76.14;101078.00;5088354;28;20487;-20
2021/10/30 04:17:26;;;;;;;44.72;26.83;;;;;;;8.26;75.24;101077.78;5088126;28;20044;-20
2021/10/30 04:19:51;;;;;;;38.13;25.45;;;;;;;8.15;74.23;101054.25;5088441;28;20035;-20
2021/10/30 04:22:17;;;;;;;41.35;25.63;;;;;;;8.17;74.68;101086.78;5088246;28;20476;-21
2021/10/30 04:24:42;;;;;;;42.50;26.73;;;;;;;8.14;74.82;101082.66;5088384;28;20028;-20
2021/10/30 04:27:07;;;;;;;42.15;25.77;;;;;;;8.14;74.70;101081.84;5070190;28;20085;-20
2021/10/30 04:29:33;;;;;;;40.72;26.13;;;;;;;8.19;74.24;101066.19;5088442;28;20377;-21
2021/10/30 04:32:00;;;;;;;38.75;25.88;;;;;;;8.21;74.32;101085.44;5088086;28;20024;-21
2021/10/30 04:37:16;;;;;;;39.92;24.83;;;;;;;8.14;74.52;101089.81;5088372;28;20067;-20
2021/10/30 04:39:45;;;;;;;39.63;25.60;;;;;;;8.24;74.24;101074.47;5071091;28;20032;-21
2021/10/30 04:42:11;;;;;;;42.78;25.73;;;;;;;8.25;74.84;101084.06;5053868;28;20097;-20
2021/10/30 04:44:37;;;;;;;43.38;25.10;;;;;;;8.55;73.82;101089.50;5088308;28;20032;-21
2021/10/30 04:47:03;;;;;;;39.90;25.15;;;;;;;8.52;73.91;101089.84;5070341;28;20032;-20
2021/10/30 04:49:28;;;;;;;44.42;25.13;;;;;;;8.32;73.79;101062.94;5088421;28;20399;-20
2021/10/30 04:51:54;;;;;;;36.60;23.95;;;;;;;8.53;73.56;101080.88;5069686;28;20028;-20
2021/10/30 04:54:19;;;;;;;38.90;23.95;;;;;;;8.42;73.74;101096.25;5088028;28;20028;-20
2021/10/30 04:56:45;;;;;;;33.92;22.10;;;;;;;8.31;74.04;101093.16;5069711;28;20036;-20
2021/10/30 04:59:10;;;;;;;36.75;23.13;;;;;;;8.20;74.75;101097.09;5087903;28;20024;-20
2021/10/30 05:01:36;;;;;;;35.92;23.17;;;;;;;7.93;75.52;101099.25;5087884;28;20098;-20
2021/10/30 05:04:01;;;;;;;36.83;23.13;;;;;;;8.22;74.27;101087.09;5087891;28;20035;-20
2021/10/30 05:06:27;;;;;;;39.05;24.73;;;;;;;8.26;75.07;101096.38;5070335;28;20507;-20
2021/10/30 05:08:52;;;;;;;35.53;22.45;;;;;;;8.52;73.70;101106.66;5091651;28;20081;-20
2021/10/30 05:11:18;;;;;;;33.95;21.73;;;;;;;8.19;74.58;101090.09;5091633;28;20036;-21
2021/10/30 05:13:43;;;;;;;33.45;21.80;;;;;;;8.20;75.26;101102.41;5073149;28;20062;-20
2021/10/30 05:16:09;;;;;;;37.28;22.52;;;;;;;8.24;75.51;101098.38;5092138;28;20089;-20
2021/10/30 05:18:34;;;;;;;34.92;23.35;;;;;;;8.54;74.21;101104.66;5091561;28;20024;-21
2021/10/30 05:21:00;;;;;;;40.95;24.48;;;;;;;8.38;74.99;101089.63;5091546;28;20507;-24
2021/10/30 05:23:25;;;;;;;34.03;21.95;;;;;;;8.82;73.07;101118.16;5091619;28;20036;-20
2021/10/30 05:25:51;;;;;;;34.55;22.33;;;;;;;8.92;72.42;101119.75;5091561;28;20039;-21
2021/10/30 05:28:22;;;;;;;34.72;22.65;;;;;;;8.79;72.74;101118.53;5091330;28;20032;-20
2021/10/30 05:30:49;;;;;;;34.42;23.00;;;;;;;8.58;73.32;101105.94;5091486;28;20020;-21
2021/10/30 05:33:15;;;;;;;37.72;23.30;;;;;;;8.73;73.33;101108.63;5073194;28;20028;-20
2021/10/30 05:35:40;;;;;;;40.35;23.00;;;;;;;8.52;74.46;101106.66;5073343;28;20043;-20
2021/10/30 05:38:06;;;;;;;32.38;22.88;;;;;;;8.74;73.01;101096.13;5090952;28;20060;-20
2021/10/30 05:40:33;;;;;;;38.85;24.23;;;;;;;8.91;73.09;101113.59;5091034;28;20039;-20
2021/10/30 05:42:58;;;;;;;40.28;25.17;;;;;;;8.75;73.15;101103.94;5072928;28;20119;-20
2021/10/30 05:45:24;;;;;;;36.67;23.40;;;;;;;8.19;74.86;101111.34;5090989;28;20047;-20
2021/10/30 05:47:49;;;;;;;35.50;23.40;;;;;;;8.22;74.55;101111.84;5090803;28;20036;-20
2021/10/30 05:50:15;;;;;;;34.30;22.15;;;;;;;8.49;74.08;101106.19;5090768;28;20032;-20
2021/10/30 05:52:40;;;;;;;36.70;23.70;;;;;;;8.65;73.63;101096.22;5090776;28;20055;-20
2021/10/30 05:55:06;;;;;;;38.03;22.55;;;;;;;8.73;73.13;101105.97;5090710;28;20085;-20
2021/10/30 05:57:31;;;;;;;35.60;21.63;;;;;;;8.71;73.21;101110.63;5072719;28;20034;-20
2021/10/30 05:59:57;;;;;;;34.47;20.60;;;;;;;8.50;73.98;101107.81;5090455;28;20411;-20
2021/10/30 06:02:22;;;;;;;35.42;21.83;;;;;;;8.59;74.49;101106.75;5091191;28;20039;-20
2021/10/30 06:04:49;;;;;;;35.85;22.25;;;;;;;9.10;73.36;101120.22;5090489;28;20381;-20
2021/10/30 06:07:14;;;;;;;35.85;22.35;;;;;;;8.90;72.67;101103.13;5090692;28;20042;-20
2021/10/30 06:09:40;;;;;;;31.75;20.02;;;;;;;8.74;72.85;101110.25;5090661;28;20020;-22
2021/10/30 06:12:06;;;;;;;34.97;21.40;;;;;;;8.49;73.96;101117.63;5090932;28;20062;-21
2021/10/30 06:14:31;;;;;;;34.95;20.33;;;;;;;8.57;74.53;101106.94;5090992;28;20032;-20
2021/10/30 06:16:56;;;;;;;32.35;20.42;;;;;;;8.43;73.79;101111.19;5090757;28;20439;-20
2021/10/30 06:19:24;;;;;;;28.88;19.13;;;;;;;8.42;73.56;101122.84;5089195;28;20016;-20
2021/10/30 06:21:50;;;;;;;33.95;20.65;;;;;;;8.62;73.22;101125.84;5090191;28;20107;-21
2021/10/30 06:24:16;;;;;;;32.72;19.65;;;;;;;8.94;71.62;101131.03;5089907;28;20036;-20
2021/10/30 06:26:41;;;;;;;30.05;20.10;;;;;;;9.12;71.13;101123.50;5090629;28;20480;-20
2021/10/30 06:29:06;;;;;;;35.25;20.52;;;;;;;8.82;71.77;101126.13;5090145;28;20028;-20
2021/10/30 06:31:32;;;;;;;34.53;20.40;;;;;;;8.60;71.81;101129.66;5090027;28;20028;-20
2021/10/30 06:33:58;;;;;;;35.17;22.25;;;;;;;8.50;72.75;101139.72;5089729;28;20412;-20
2021/10/30 06:36:24;;;;;;;33.70;20.95;;;;;;;8.49;73.20;101112.31;5089892;28;20032;-19
2021/10/30 06:38:50;;;;;;;35.63;22.80;;;;;;;8.81;72.24;101127.16;5089398;28;20097;-20
2021/10/30 06:41:15;;;;;;;37.55;23.85;;;;;;;8.90;71.52;101117.25;5090074;28;20032;-20
2021/10/30 06:43:41;;;;;;;41.13;22.70;;;;;;;8.82;71.68;101134.09;5089970;28;20035;-20
2021/10/30 06:46:07;;;;;;;62.08;34.58;;;;;;;9.01;71.72;101121.28;5090051;28;20107;-20
2021/10/30 06:48:33;;;;;;;35.92;22.75;;;;;;;9.04;70.45;101147.53;5089629;28;20024;-20
2021/10/30 06:50:59;;;;;;;34.33;22.85;;;;;;;9.11;70.99;101153.78;5089703;28;20035;-20
2021/10/30 06:53:24;;;;;;;35.33;21.67;;;;;;;9.01;70.38;101137.25;5089984;28;20048;-21
2021/10/30 06:55:50;;;;;;;33.28;20.50;;;;;;;9.08;70.39;101142.69;5089531;28;20032;-20
2021/10/30 06:58:18;;;;;;;32.35;20.90;;;;;;;9.40;70.58;101133.53;5089702;28;20093;-20
2021/10/30 07:00:44;;;;;;;34.97;22.40;;;;;;;9.53;69.53;101146.19;5072106;28;20035;-20
2021/10/30 07:03:10;;;;;;;32.78;21.33;;;;;;;9.44;69.50;101148.13;5089405;28;20036;-21
2021/10/30 07:05:35;;;;;;;33.00;21.13;;;;;;;9.48;69.79;101144.06;5089409;28;20427;-22
2021/10/30 07:08:01;;;;;;;36.63;23.20;;;;;;;9.47;69.43;101142.41;5089000;28;20190;-22
2021/10/30 07:10:26;;;;;;;34.10;22.15;;;;;;;9.88;69.18;101143.72;5089653;28;20123;-22
2021/10/30 07:12:52;;;;;;;35.05;21.70;;;;;;;10.09;67.33;101145.59;5071269;28;20396;-22
2021/10/30 07:15:17;;;;;;;35.60;23.40;;;;;;;10.34;67.00;101157.56;5089296;28;20031;-22
2021/10/30 07:17:43;;;;;;;38.05;24.00;;;;;;;10.30;66.68;101145.63;5089248;28;20036;-22
2021/10/30 07:20:09;;;;;;;94.72;51.10;;;;;;;10.23;67.23;101131.38;5089072;28;20118;-22
2021/10/30 07:22:47;;;;;;;37.72;23.95;;;;;;;10.51;67.43;101151.97;5089080;28;20495;-22
2021/10/30 07:25:13;;;;;;;36.60;22.40;;;;;;;10.34;67.29;101146.91;5089301;28;20036;-22
2021/10/30 07:27:39;;;;;;;42.63;23.90;;;;;;;10.57;66.98;101144.03;5089557;28;20078;-22
2021/10/30 07:30:06;;;;;;;33.83;23.83;;;;;;;10.15;67.48;101131.50;5088749;28;20407;-22
2021/10/30 07:32:31;;;;;;;37.58;23.88;;;;;;;10.28;67.50;101139.63;5088862;28;20054;-22
2021/10/30 07:34:57;;;;;;;34.13;23.02;;;;;;;10.53;67.17;101144.63;5088856;28;20480;-22
2021/10/30 07:37:22;;;;;;;33.78;22.30;;;;;;;10.71;66.84;101149.50;5088940;28;20032;-22
2021/10/30 07:39:48;;;;;;;36.65;23.90;;;;;;;11.00;65.97;101151.13;5088205;28;20016;-21
2021/10/30 07:42:13;;;;;;;32.90;22.88;;;;;;;11.01;65.54;101139.41;5088867;28;20035;-20
2021/10/30 07:44:39;;;;;;;37.90;23.20;;;;;;;10.92;66.29;101141.41;5088644;28;20028;-20
2021/10/30 07:47:05;;;;;;;35.65;22.70;;;;;;;11.19;64.95;101131.72;5088719;28;20038;-21
2021/10/30 07:49:30;;;;;;;34.92;23.15;;;;;;;10.93;64.87;101137.75;5070555;28;20036;-21
2021/10/30 07:51:56;;;;;;;38.88;24.45;;;;;;;11.18;65.13;101135.44;5088394;28;20555;-21
2021/10/30 07:54:22;;;;;;;38.53;24.45;;;;;;;11.33;65.30;101131.81;5088607;28;20123;-21
2021/10/30 07:56:47;;;;;;;38.35;24.35;;;;;;;11.53;64.89;101135.41;5088466;28;20400;-21
2021/10/30 07:59:13;;;;;;;42.45;25.85;;;;;;;11.74;63.86;101123.75;5088476;28;20039;-22
2021/10/30 08:01:38;;;;;;;34.33;21.52;;;;;;;11.59;63.77;101115.09;5071041;28;20093;-21
2021/10/30 08:04:04;;;;;;;34.35;21.25;;;;;;;11.30;65.28;101127.69;5088289;28;20109;-21
2021/10/30 08:06:29;;;;;;;35.92;22.08;;;;;;;11.86;63.53;101127.50;5087450;28;20059;-21
2021/10/30 08:08:55;;;;;;;33.53;21.48;;;;;;;12.08;63.37;101129.25;5088381;28;20020;-21
2021/10/30 08:11:20;;;;;;;32.53;21.20;;;;;;;11.79;63.70;101120.47;5088313;28;20036;-20
2021/10/30 08:13:46;;;;;;;28.27;20.67;;;;;;;11.88;63.67;101131.84;5088077;28;20038;-20
2021/10/30 08:16:11;;;;;;;29.77;20.25;;;;;;;12.17;62.39;101117.31;5070228;28;20035;-20
2021/10/30 08:18:37;;;;;;;31.52;21.23;;;;;;;12.15;62.79;101130.06;5088447;28;20020;-20
2021/10/30 08:21:02;;;;;;;31.20;20.83;;;;;;;12.63;61.79;101121.88;5088436;28;20086;-20
2021/10/30 08:23:28;;;;;;;29.17;19.60;;;;;;;12.27;61.36;101117.75;5088227;28;20032;-21
2021/10/30 08:25:53;;;;;;;30.95;20.33;;;;;;;11.90;63.09;101124.47;5088002;28;20036;-20
2021/10/30 08:28:19;;;;;;;30.58;20.35;;;;;;;11.71;63.77;101123.34;5087990;28;20031;-20
2021/10/30 08:30:44;;;;;;;32.47;21.17;;;;;;;11.86;64.06;101113.31;5088020;28;20036;-20
2021/10/30 08:33:11;;;;;;;38.70;25.23;;;;;;;12.23;63.16;101121.84;5088377;28;20024;-22
2021/10/30 08:35:36;;;;;;;35.40;22.23;;;;;;;12.17;62.76;101106.63;5087918;28;20043;-21
2021/10/30 08:38:02;;;;;;;33.88;22.55;;;;;;;12.35;63.47;101114.06;5088488;28;20044;-21
2021/10/30 08:40:27;;;;;;;42.13;25.10;;;;;;;11.98;64.01;101114.41;5088299;28;20028;-20
2021/10/30 08:42:53;;;;;;;41.92;26.00;;;;;;;12.04;64.60;101112.78;5090746;28;20132;-21
2021/10/30 08:45:19;;;;;;;34.45;20.77;;;;;;;12.32;63.19;101096.56;5092006;28;20039;-21
2021/10/30 08:47:45;;;;;;;31.75;20.75;;;;;;;12.44;62.88;101092.25;5091856;28;20035;-20
2021/10/30 08:50:11;;;;;;;30.58;20.30;;;;;;;12.54;63.11;101091.81;5091925;28;20039;-21
2021/10/30 08:52:37;;;;;;;29.48;19.70;;;;;;;12.50;63.78;101100.47;5091326;28;20043;-20
2021/10/30 08:55:06;;;;;;;27.20;17.73;;;;;;;12.53;63.64;101100.06;5091916;28;20733;-20
2021/10/30 08:57:33;;;;;;;25.25;17.27;;;;;;;12.64;63.41;101072.69;5091870;28;20028;-20
2021/10/30 09:00:17;;;;;;;25.77;16.48;;;;;;;12.76;62.76;101088.94;5091637;28;20028;-20
2021/10/30 09:02:43;;;;;;;21.58;13.88;;;;;;;12.60;62.34;101074.13;5091617;28;20482;-21
2021/10/30 09:05:15;;;;;;;22.10;14.27;;;;;;;12.93;61.85;101089.31;5073776;28;20028;-20
2021/10/30 09:07:41;;;;;;;24.42;16.60;;;;;;;12.65;63.41;101085.03;5091973;28;20032;-21
2021/10/30 09:10:18;;;;;;;24.10;15.73;;;;;;;12.59;63.86;101075.16;5091705;28;20128;-20
2021/10/30 09:12:56;;;;;;;23.48;16.00;;;;;;;12.70;62.44;101069.16;5092250;28;20051;-21
2021/10/30 09:15:30;;;;;;;21.85;14.98;;;;;;;13.10;61.01;101073.59;5091656;28;20047;-21
2021/10/30 09:17:56;;;;;;;23.25;15.63;;;;;;;13.26;61.78;101063.25;5091552;28;20142;-20
2021/10/30 09:20:34;;;;;;;23.08;15.70;;;;;;;13.40;61.09;101090.00;5091325;28;20035;-20
2021/10/30 09:23:00;;;;;;;23.50;15.70;;;;;;;13.61;60.67;101086.22;5091627;28;20461;-20
2021/10/30 09:25:25;;;;;;;25.02;16.23;;;;;;;14.09;60.03;101082.22;5091632;28;20028;-20
2021/10/30 09:28:01;;;;;;;24.02;15.77;;;;;;;14.13;59.76;101067.34;5091164;28;20040;-20
2021/10/30 09:30:26;;;;;;;24.50;15.50;;;;;;;13.72;59.51;101077.50;5091304;28;20028;-22
2021/10/30 09:32:58;;;;;;;22.95;16.20;;;;;;;13.53;60.41;101057.81;5091262;28;20050;-22
2021/10/30 09:35:27;;;;;;;25.27;15.60;;;;;;;13.43;61.37;101068.16;5091577;28;20689;-19
2021/10/30 09:37:53;;;;;;;24.25;16.52;;;;;;;13.42;60.63;101037.03;5090816;28;20055;-20
2021/10/30 09:40:24;;;;;;;20.83;14.10;;;;;;;13.44;61.44;101059.06;5072943;28;20816;-20
2021/10/30 09:43:08;;;;;;;25.13;15.77;;;;;;;13.30;61.32;101057.50;5091123;28;20115;-20
2021/10/30 09:45:51;;;;;;;1082.72;592.42;;;;;;;13.29;62.74;101056.69;5090968;28;20852;-20
2021/10/30 09:48:22;;;;;;;1999.90;814.10;;;;;;;13.60;62.24;101053.22;5073302;28;20032;-20
2021/10/30 09:50:56;;;;;;;1434.53;738.60;;;;;;;13.15;62.54;101039.81;5090847;28;20031;-20
2021/10/30 09:53:32;;;;;;;1777.88;801.28;;;;;;;13.11;62.10;101024.38;5089428;28;20040;-19
2021/10/30 09:55:59;;;;;;;1997.68;846.20;;;;;;;12.99;63.55;101032.25;5090603;28;20055;-20
2021/10/30 09:58:33;;;;;;;718.80;469.98;;;;;;;13.13;63.13;101019.63;5090794;28;20050;-20
2021/10/30 10:01:00;;;;;;;496.27;348.30;;;;;;;13.23;62.44;101031.53;5090842;28;20094;-20
2021/10/30 10:03:26;;;;;;;1984.17;957.93;;;;;;;13.52;62.39;101023.19;5056490;28;20043;-20
2021/10/30 10:05:54;;;;;;;622.65;444.58;;;;;;;13.62;61.66;101024.34;5072697;28;20173;-20
2021/10/30 10:08:19;;;;;;;693.28;424.90;;;;;;;13.83;59.09;101017.00;5072660;28;20692;-20
2021/10/30 10:10:44;;;;;;;956.45;666.55;;;;;;;13.72;59.88;101015.03;5090731;28;20047;-20
2021/10/30 10:13:10;;;;;;;201.75;164.52;;;;;;;13.73;60.71;101011.28;5090536;28;20577;-20
2021/10/30 10:15:39;;;;;;;1999.90;993.90;;;;;;;13.44;61.72;101010.84;5072382;28;20466;-20
2021/10/30 10:18:06;;;;;;;494.02;379.55;;;;;;;13.72;60.56;101007.81;5090090;28;20032;-20
2021/10/30 10:20:31;;;;;;;1999.90;898.97;;;;;;;13.61;59.66;101001.28;5090272;28;20040;-20
2021/10/30 10:22:57;;;;;;;1884.75;875.28;;;;;;;13.74;59.42;100999.56;5072083;28;20024;-20
2021/10/30 10:25:34;;;;;;;586.92;335.38;;;;;;;14.13;58.62;101000.28;5072126;28;20043;-20
2021/10/30 10:28:25;;;;;;;370.13;287.93;;;;;;;14.10;58.21;101001.56;5090220;28;20030;-20
2021/10/30 10:31:20;;;;;;;978.67;534.50;;;;;;;14.12;57.59;100995.94;5071993;28;20274;-20
2021/10/30 10:33:54;;;;;;;1503.30;662.78;;;;;;;14.19;56.71;100996.72;5089930;28;20032;-19
2021/10/30 10:36:20;;;;;;;122.15;56.72;;;;;;;14.18;56.89;100984.34;5056793;28;20503;-20
2021/10/30 10:38:57;;;;;;;345.13;173.07;;;;;;;14.21;57.45;100990.09;5089833;28;20052;-20
2021/10/30 10:41:44;;;;;;;624.08;357.38;;;;;;;14.31;58.20;100988.78;5090037;28;20027;-20
2021/10/30 10:44:14;;;;;;;297.35;154.13;;;;;;;14.30;57.57;100982.56;5090131;28;20035;-20
2021/10/30 10:46:50;;;;;;;88.47;45.90;;;;;;;14.27;56.79;100981.16;5072417;28;20035;-20
2021/10/30 10:49:48;;;;;;;127.53;64.97;;;;;;;14.40;56.14;100990.13;5089747;28;20032;-20
2021/10/30 10:52:19;;;;;;;433.77;232.07;;;;;;;14.25;56.63;100985.09;5089801;28;20032;-20
2021/10/30 10:54:54;;;;;;;218.05;99.72;;;;;;;14.29;58.31;100980.13;5089565;28;20459;-20
2021/10/30 10:57:23;;;;;;;1113.40;561.65;;;;;;;14.27;56.19;100977.66;5089676;28;20882;-20
2021/10/30 11:00:06;;;;;;;373.35;181.93;;;;;;;14.20;56.85;100963.47;5089612;28;20028;-20
2021/10/30 11:02:36;;;;;;;603.08;327.55;;;;;;;14.35;56.66;100963.97;5089516;28;20051;-21
2021/10/30 11:05:08;;;;;;;1112.25;580.33;;;;;;;14.20;56.55;100966.16;5089379;28;20047;-20
2021/10/30 11:07:37;;;;;;;769.33;512.20;;;;;;;14.36;55.40;100964.78;5089511;28;20032;-20
2021/10/30 11:10:13;;;;;;;203.27;98.75;;;;;;;14.28;54.92;100957.81;5089151;28;20111;-20
2021/10/30 11:12:44;;;;;;;339.73;171.95;;;;;;;14.15;55.33;100957.97;5071376;28;20535;-21
2021/10/30 11:15:19;;;;;;;529.72;290.55;;;;;;;14.22;55.21;100956.03;5054987;28;20042;-20